sensor_id;sensor_type;location;lat;lon;timestamp;P1;durP1;ratioP1;P2;durP2;ratioP2
71176;SDS011;58877;51.992;4.504;2023-06-14T00:01:50;3.06;;;3.06;;
71176;SDS011;58877;51.992;4.504;2023-06-14T00:04:16;3.22;;;3.22;;
71176;SDS011;58877;51.992;4.504;2023-06-14T00:06:43;3.05;;;3.05;;
71176;SDS011;58877;51.992;4.504;2023-06-14T00:09:10;2.78;;;2.78;;
71176;SDS011;58877;51.992;4.504;2023-06-14T00:11:38;2.87;;;2.87;;
71176;SDS011;58877;51.992;4.504;2023-06-14T00:14:08;2.99;;;2.99;;
71176;SDS011;58877;51.992;4.504;2023-06-14T00:16:33;2.97;;;2.97;;
71176;SDS011;58877;51.992;4.504;2023-06-14T00:19:03;2.91;;;2.91;;
71176;SDS011;58877;51.992;4.504;2023-06-14T00:21:30;3.15;;;3.15;;
71176;SDS011;58877;51.992;4.504;2023-06-14T00:23:57;3.02;;;3.02;;
71176;SDS011;58877;51.992;4.504;2023-06-14T00:26:23;3.18;;;3.18;;
71176;SDS011;58877;51.992;4.504;2023-06-14T00:28:48;3.01;;;3.01;;
71176;SDS011;58877;51.992;4.504;2023-06-14T00:31:17;3.14;;;3.14;;
71176;SDS011;58877;51.992;4.504;2023-06-14T00:33:47;2.93;;;2.93;;
71176;SDS011;58877;51.992;4.504;2023-06-14T00:36:12;3.25;;;3.25;;
71176;SDS011;58877;51.992;4.504;2023-06-14T00:38:40;3.19;;;3.19;;
71176;SDS011;58877;51.992;4.504;2023-06-14T00:41:06;3.24;;;3.24;;
71176;SDS011;58877;51.992;4.504;2023-06-14T00:43:32;2.91;;;2.91;;
71176;SDS011;58877;51.992;4.504;2023-06-14T00:45:59;2.99;;;2.99;;
71176;SDS011;58877;51.992;4.504;2023-06-14T00:48:26;3.42;;;3.42;;
71176;SDS011;58877;51.992;4.504;2023-06-14T00:50:53;3.32;;;3.32;;
71176;SDS011;58877;51.992;4.504;2023-06-14T00:53:20;3.15;;;3.15;;
71176;SDS011;58877;51.992;4.504;2023-06-14T00:55:48;3.14;;;3.14;;
71176;SDS011;58877;51.992;4.504;2023-06-14T00:58:14;3.39;;;3.39;;
71176;SDS011;58877;51.992;4.504;2023-06-14T01:00:43;3.09;;;3.09;;
71176;SDS011;58877;51.992;4.504;2023-06-14T01:03:09;3.18;;;3.18;;
71176;SDS011;58877;51.992;4.504;2023-06-14T01:05:37;3.05;;;3.05;;
71176;SDS011;58877;51.992;4.504;2023-06-14T01:08:24;3.19;;;3.19;;
71176;SDS011;58877;51.992;4.504;2023-06-14T01:11:05;2.92;;;2.92;;
71176;SDS011;58877;51.992;4.504;2023-06-14T01:13:41;3.21;;;3.21;;
71176;SDS011;58877;51.992;4.504;2023-06-14T01:16:11;3.08;;;3.08;;
71176;SDS011;58877;51.992;4.504;2023-06-14T01:18:40;3.38;;;3.38;;
71176;SDS011;58877;51.992;4.504;2023-06-14T01:21:22;3.19;;;3.19;;
71176;SDS011;58877;51.992;4.504;2023-06-14T01:23:49;3.40;;;3.40;;
71176;SDS011;58877;51.992;4.504;2023-06-14T01:26:24;3.22;;;3.22;;
71176;SDS011;58877;51.992;4.504;2023-06-14T01:28:51;3.50;;;3.50;;
71176;SDS011;58877;51.992;4.504;2023-06-14T01:31:23;3.32;;;3.32;;
71176;SDS011;58877;51.992;4.504;2023-06-14T01:33:50;3.18;;;3.18;;
71176;SDS011;58877;51.992;4.504;2023-06-14T01:36:20;3.07;;;3.07;;
71176;SDS011;58877;51.992;4.504;2023-06-14T01:38:51;3.20;;;3.20;;
71176;SDS011;58877;51.992;4.504;2023-06-14T01:41:18;3.35;;;3.35;;
71176;SDS011;58877;51.992;4.504;2023-06-14T01:43:47;3.36;;;3.36;;
71176;SDS011;58877;51.992;4.504;2023-06-14T01:46:15;3.15;;;3.15;;
71176;SDS011;58877;51.992;4.504;2023-06-14T01:48:42;3.24;;;3.24;;
71176;SDS011;58877;51.992;4.504;2023-06-14T01:51:08;3.25;;;3.25;;
71176;SDS011;58877;51.992;4.504;2023-06-14T01:53:34;3.34;;;3.34;;
71176;SDS011;58877;51.992;4.504;2023-06-14T01:56:01;3.42;;;3.42;;
71176;SDS011;58877;51.992;4.504;2023-06-14T01:58:26;3.53;;;3.53;;
71176;SDS011;58877;51.992;4.504;2023-06-14T02:00:52;3.55;;;3.55;;
71176;SDS011;58877;51.992;4.504;2023-06-14T02:03:21;3.56;;;3.56;;
71176;SDS011;58877;51.992;4.504;2023-06-14T02:05:48;3.55;;;3.55;;
71176;SDS011;58877;51.992;4.504;2023-06-14T02:08:14;3.38;;;3.38;;
71176;SDS011;58877;51.992;4.504;2023-06-14T02:10:40;3.91;;;3.91;;
71176;SDS011;58877;51.992;4.504;2023-06-14T02:13:06;3.60;;;3.60;;
71176;SDS011;58877;51.992;4.504;2023-06-14T02:15:35;3.65;;;3.65;;
71176;SDS011;58877;51.992;4.504;2023-06-14T02:18:04;3.69;;;3.69;;
71176;SDS011;58877;51.992;4.504;2023-06-14T02:20:30;3.58;;;3.58;;
71176;SDS011;58877;51.992;4.504;2023-06-14T02:22:56;3.85;;;3.85;;
71176;SDS011;58877;51.992;4.504;2023-06-14T02:25:22;3.79;;;3.79;;
71176;SDS011;58877;51.992;4.504;2023-06-14T02:27:47;3.58;;;3.58;;
71176;SDS011;58877;51.992;4.504;2023-06-14T02:30:13;3.46;;;3.46;;
71176;SDS011;58877;51.992;4.504;2023-06-14T02:32:40;3.81;;;3.81;;
71176;SDS011;58877;51.992;4.504;2023-06-14T02:35:07;3.16;;;3.16;;
71176;SDS011;58877;51.992;4.504;2023-06-14T02:37:33;3.64;;;3.64;;
71176;SDS011;58877;51.992;4.504;2023-06-14T02:40:00;3.79;;;3.79;;
71176;SDS011;58877;51.992;4.504;2023-06-14T02:42:25;3.67;;;3.67;;
71176;SDS011;58877;51.992;4.504;2023-06-14T02:44:51;3.70;;;3.70;;
71176;SDS011;58877;51.992;4.504;2023-06-14T02:47:17;3.60;;;3.60;;
71176;SDS011;58877;51.992;4.504;2023-06-14T02:49:44;3.68;;;3.68;;
71176;SDS011;58877;51.992;4.504;2023-06-14T02:52:11;3.66;;;3.66;;
71176;SDS011;58877;51.992;4.504;2023-06-14T02:54:37;3.80;;;3.80;;
71176;SDS011;58877;51.992;4.504;2023-06-14T02:57:10;3.56;;;3.56;;
71176;SDS011;58877;51.992;4.504;2023-06-14T02:59:36;3.77;;;3.77;;
71176;SDS011;58877;51.992;4.504;2023-06-14T03:02:13;3.64;;;3.64;;
71176;SDS011;58877;51.992;4.504;2023-06-14T03:04:40;3.64;;;3.64;;
71176;SDS011;58877;51.992;4.504;2023-06-14T03:07:09;3.34;;;3.34;;
71176;SDS011;58877;51.992;4.504;2023-06-14T03:09:36;3.61;;;3.61;;
71176;SDS011;58877;51.992;4.504;2023-06-14T03:12:02;3.92;;;3.92;;
71176;SDS011;58877;51.992;4.504;2023-06-14T03:14:29;3.23;;;3.23;;
71176;SDS011;58877;51.992;4.504;2023-06-14T03:17:06;3.80;;;3.80;;
71176;SDS011;58877;51.992;4.504;2023-06-14T03:19:33;3.30;;;3.30;;
71176;SDS011;58877;51.992;4.504;2023-06-14T03:22:03;3.74;;;3.74;;
71176;SDS011;58877;51.992;4.504;2023-06-14T03:24:29;3.88;;;3.88;;
71176;SDS011;58877;51.992;4.504;2023-06-14T03:26:59;3.36;;;3.36;;
71176;SDS011;58877;51.992;4.504;2023-06-14T03:29:26;3.36;;;3.36;;
71176;SDS011;58877;51.992;4.504;2023-06-14T03:32:01;3.90;;;3.90;;
71176;SDS011;58877;51.992;4.504;2023-06-14T03:34:28;3.75;;;3.75;;
71176;SDS011;58877;51.992;4.504;2023-06-14T03:36:54;3.85;;;3.84;;
71176;SDS011;58877;51.992;4.504;2023-06-14T03:39:20;3.24;;;3.23;;
71176;SDS011;58877;51.992;4.504;2023-06-14T03:41:51;3.47;;;3.47;;
71176;SDS011;58877;51.992;4.504;2023-06-14T03:44:17;3.54;;;3.53;;
71176;SDS011;58877;51.992;4.504;2023-06-14T03:46:44;3.82;;;3.82;;
71176;SDS011;58877;51.992;4.504;2023-06-14T03:49:12;3.35;;;3.35;;
71176;SDS011;58877;51.992;4.504;2023-06-14T03:51:37;3.41;;;3.41;;
71176;SDS011;58877;51.992;4.504;2023-06-14T03:54:06;3.47;;;3.47;;
71176;SDS011;58877;51.992;4.504;2023-06-14T03:56:35;3.71;;;3.71;;
71176;SDS011;58877;51.992;4.504;2023-06-14T03:59:04;3.91;;;3.91;;
71176;SDS011;58877;51.992;4.504;2023-06-14T04:01:30;3.29;;;3.28;;
71176;SDS011;58877;51.992;4.504;2023-06-14T04:04:01;3.28;;;3.28;;
71176;SDS011;58877;51.992;4.504;2023-06-14T04:06:27;3.50;;;3.50;;
71176;SDS011;58877;51.992;4.504;2023-06-14T04:08:58;3.32;;;3.31;;
71176;SDS011;58877;51.992;4.504;2023-06-14T04:11:29;3.25;;;3.25;;
71176;SDS011;58877;51.992;4.504;2023-06-14T04:14:03;2.98;;;2.98;;
71176;SDS011;58877;51.992;4.504;2023-06-14T04:16:55;3.42;;;3.41;;
71176;SDS011;58877;51.992;4.504;2023-06-14T04:19:24;3.15;;;3.15;;
71176;SDS011;58877;51.992;4.504;2023-06-14T04:24:27;3.61;;;3.61;;
71176;SDS011;58877;51.992;4.504;2023-06-14T04:27:00;3.16;;;3.16;;
71176;SDS011;58877;51.992;4.504;2023-06-14T04:29:29;3.33;;;3.33;;
71176;SDS011;58877;51.992;4.504;2023-06-14T04:31:57;3.49;;;3.49;;
71176;SDS011;58877;51.992;4.504;2023-06-14T04:34:30;3.46;;;3.46;;
71176;SDS011;58877;51.992;4.504;2023-06-14T04:36:59;3.07;;;3.06;;
71176;SDS011;58877;51.992;4.504;2023-06-14T04:39:26;3.10;;;3.10;;
71176;SDS011;58877;51.992;4.504;2023-06-14T04:41:53;3.30;;;3.30;;
71176;SDS011;58877;51.992;4.504;2023-06-14T04:44:23;3.22;;;3.21;;
71176;SDS011;58877;51.992;4.504;2023-06-14T04:46:59;2.92;;;2.92;;
71176;SDS011;58877;51.992;4.504;2023-06-14T04:49:28;3.09;;;3.09;;
71176;SDS011;58877;51.992;4.504;2023-06-14T04:51:57;3.12;;;3.12;;
71176;SDS011;58877;51.992;4.504;2023-06-14T04:54:25;3.02;;;3.02;;
71176;SDS011;58877;51.992;4.504;2023-06-14T04:56:59;3.28;;;3.27;;
71176;SDS011;58877;51.992;4.504;2023-06-14T04:59:25;2.94;;;2.94;;
71176;SDS011;58877;51.992;4.504;2023-06-14T05:01:54;2.85;;;2.85;;
71176;SDS011;58877;51.992;4.504;2023-06-14T05:04:22;2.65;;;2.65;;
71176;SDS011;58877;51.992;4.504;2023-06-14T05:06:48;3.15;;;3.15;;
71176;SDS011;58877;51.992;4.504;2023-06-14T05:09:15;2.82;;;2.82;;
71176;SDS011;58877;51.992;4.504;2023-06-14T05:11:42;2.95;;;2.95;;
71176;SDS011;58877;51.992;4.504;2023-06-14T05:14:12;2.72;;;2.71;;
71176;SDS011;58877;51.992;4.504;2023-06-14T05:16:40;3.20;;;3.18;;
71176;SDS011;58877;51.992;4.504;2023-06-14T05:19:06;3.06;;;3.06;;
71176;SDS011;58877;51.992;4.504;2023-06-14T05:21:32;3.24;;;3.24;;
71176;SDS011;58877;51.992;4.504;2023-06-14T05:24:04;2.77;;;2.76;;
71176;SDS011;58877;51.992;4.504;2023-06-14T05:26:30;2.94;;;2.94;;
71176;SDS011;58877;51.992;4.504;2023-06-14T05:28:58;3.03;;;3.03;;
71176;SDS011;58877;51.992;4.504;2023-06-14T05:31:31;2.83;;;2.83;;
71176;SDS011;58877;51.992;4.504;2023-06-14T05:33:57;3.20;;;3.20;;
71176;SDS011;58877;51.992;4.504;2023-06-14T05:36:23;2.95;;;2.95;;
71176;SDS011;58877;51.992;4.504;2023-06-14T05:38:50;2.81;;;2.81;;
71176;SDS011;58877;51.992;4.504;2023-06-14T05:41:24;3.14;;;3.14;;
71176;SDS011;58877;51.992;4.504;2023-06-14T05:43:57;3.10;;;3.09;;
71176;SDS011;58877;51.992;4.504;2023-06-14T05:46:23;2.76;;;2.76;;
71176;SDS011;58877;51.992;4.504;2023-06-14T05:48:54;2.92;;;2.92;;
71176;SDS011;58877;51.992;4.504;2023-06-14T05:51:20;2.95;;;2.94;;
71176;SDS011;58877;51.992;4.504;2023-06-14T05:53:47;2.91;;;2.88;;
71176;SDS011;58877;51.992;4.504;2023-06-14T05:56:20;2.96;;;2.93;;
71176;SDS011;58877;51.992;4.504;2023-06-14T05:58:46;2.86;;;2.85;;
71176;SDS011;58877;51.992;4.504;2023-06-14T06:01:16;2.90;;;2.89;;
71176;SDS011;58877;51.992;4.504;2023-06-14T06:03:42;2.57;;;2.57;;
71176;SDS011;58877;51.992;4.504;2023-06-14T06:06:28;3.81;;;3.81;;
71176;SDS011;58877;51.992;4.504;2023-06-14T06:08:54;3.63;;;3.63;;
71176;SDS011;58877;51.992;4.504;2023-06-14T06:11:20;3.49;;;3.49;;
71176;SDS011;58877;51.992;4.504;2023-06-14T06:13:47;2.89;;;2.89;;
71176;SDS011;58877;51.992;4.504;2023-06-14T06:16:16;2.75;;;2.75;;
71176;SDS011;58877;51.992;4.504;2023-06-14T06:18:42;2.80;;;2.80;;
71176;SDS011;58877;51.992;4.504;2023-06-14T06:21:10;3.20;;;3.20;;
71176;SDS011;58877;51.992;4.504;2023-06-14T06:23:36;3.10;;;3.10;;
71176;SDS011;58877;51.992;4.504;2023-06-14T06:26:08;3.55;;;3.55;;
71176;SDS011;58877;51.992;4.504;2023-06-14T06:28:34;2.97;;;2.97;;
71176;SDS011;58877;51.992;4.504;2023-06-14T06:31:08;3.12;;;3.12;;
71176;SDS011;58877;51.992;4.504;2023-06-14T06:33:35;2.93;;;2.93;;
71176;SDS011;58877;51.992;4.504;2023-06-14T06:36:00;2.84;;;2.84;;
71176;SDS011;58877;51.992;4.504;2023-06-14T06:38:35;2.70;;;2.70;;
71176;SDS011;58877;51.992;4.504;2023-06-14T06:41:01;2.68;;;2.68;;
71176;SDS011;58877;51.992;4.504;2023-06-14T06:43:30;2.84;;;2.84;;
71176;SDS011;58877;51.992;4.504;2023-06-14T06:45:55;2.85;;;2.85;;
71176;SDS011;58877;51.992;4.504;2023-06-14T06:48:21;2.89;;;2.89;;
71176;SDS011;58877;51.992;4.504;2023-06-14T06:50:47;3.09;;;3.09;;
71176;SDS011;58877;51.992;4.504;2023-06-14T06:53:12;3.27;;;3.27;;
71176;SDS011;58877;51.992;4.504;2023-06-14T06:55:38;3.48;;;3.48;;
71176;SDS011;58877;51.992;4.504;2023-06-14T06:58:07;3.06;;;3.06;;
71176;SDS011;58877;51.992;4.504;2023-06-14T07:00:36;2.93;;;2.93;;
71176;SDS011;58877;51.992;4.504;2023-06-14T07:03:01;2.90;;;2.90;;
71176;SDS011;58877;51.992;4.504;2023-06-14T07:05:30;2.72;;;2.72;;
71176;SDS011;58877;51.992;4.504;2023-06-14T07:07:56;3.36;;;3.36;;
71176;SDS011;58877;51.992;4.504;2023-06-14T07:10:22;2.86;;;2.86;;
71176;SDS011;58877;51.992;4.504;2023-06-14T07:12:49;3.09;;;3.09;;
71176;SDS011;58877;51.992;4.504;2023-06-14T07:15:18;3.33;;;3.33;;
71176;SDS011;58877;51.992;4.504;2023-06-14T07:17:48;2.94;;;2.94;;
71176;SDS011;58877;51.992;4.504;2023-06-14T07:20:13;2.99;;;2.99;;
71176;SDS011;58877;51.992;4.504;2023-06-14T07:22:41;2.72;;;2.72;;
71176;SDS011;58877;51.992;4.504;2023-06-14T07:25:11;3.18;;;3.18;;
71176;SDS011;58877;51.992;4.504;2023-06-14T07:27:41;2.87;;;2.87;;
71176;SDS011;58877;51.992;4.504;2023-06-14T07:30:08;2.97;;;2.97;;
71176;SDS011;58877;51.992;4.504;2023-06-14T07:32:37;2.97;;;2.97;;
71176;SDS011;58877;51.992;4.504;2023-06-14T07:35:03;3.18;;;3.18;;
71176;SDS011;58877;51.992;4.504;2023-06-14T07:37:29;3.14;;;3.14;;
71176;SDS011;58877;51.992;4.504;2023-06-14T07:39:55;3.15;;;3.15;;
71176;SDS011;58877;51.992;4.504;2023-06-14T07:42:21;3.04;;;3.04;;
71176;SDS011;58877;51.992;4.504;2023-06-14T07:44:50;3.17;;;3.17;;
71176;SDS011;58877;51.992;4.504;2023-06-14T07:47:19;2.91;;;2.91;;
71176;SDS011;58877;51.992;4.504;2023-06-14T07:49:50;2.98;;;2.98;;
71176;SDS011;58877;51.992;4.504;2023-06-14T07:52:16;3.11;;;3.11;;
71176;SDS011;58877;51.992;4.504;2023-06-14T07:54:42;2.92;;;2.92;;
71176;SDS011;58877;51.992;4.504;2023-06-14T07:57:09;3.02;;;3.02;;
71176;SDS011;58877;51.992;4.504;2023-06-14T07:59:35;3.13;;;3.13;;
71176;SDS011;58877;51.992;4.504;2023-06-14T08:02:01;2.74;;;2.74;;
71176;SDS011;58877;51.992;4.504;2023-06-14T08:04:27;2.86;;;2.86;;
71176;SDS011;58877;51.992;4.504;2023-06-14T08:06:52;3.12;;;3.12;;
71176;SDS011;58877;51.992;4.504;2023-06-14T08:09:18;2.87;;;2.87;;
71176;SDS011;58877;51.992;4.504;2023-06-14T08:11:44;3.07;;;3.07;;
71176;SDS011;58877;51.992;4.504;2023-06-14T08:14:10;2.77;;;2.77;;
71176;SDS011;58877;51.992;4.504;2023-06-14T08:16:36;2.70;;;2.70;;
71176;SDS011;58877;51.992;4.504;2023-06-14T08:19:02;2.79;;;2.79;;
71176;SDS011;58877;51.992;4.504;2023-06-14T08:21:28;3.10;;;3.10;;
71176;SDS011;58877;51.992;4.504;2023-06-14T08:23:55;3.08;;;3.08;;
71176;SDS011;58877;51.992;4.504;2023-06-14T08:26:22;2.70;;;2.70;;
71176;SDS011;58877;51.992;4.504;2023-06-14T08:28:48;2.94;;;2.94;;
71176;SDS011;58877;51.992;4.504;2023-06-14T08:31:14;2.78;;;2.78;;
71176;SDS011;58877;51.992;4.504;2023-06-14T08:33:40;2.68;;;2.68;;
71176;SDS011;58877;51.992;4.504;2023-06-14T08:36:08;2.84;;;2.84;;
71176;SDS011;58877;51.992;4.504;2023-06-14T08:38:36;2.85;;;2.85;;
71176;SDS011;58877;51.992;4.504;2023-06-14T08:41:05;2.44;;;2.44;;
71176;SDS011;58877;51.992;4.504;2023-06-14T08:43:32;2.57;;;2.57;;
71176;SDS011;58877;51.992;4.504;2023-06-14T08:45:58;2.79;;;2.79;;
71176;SDS011;58877;51.992;4.504;2023-06-14T08:48:28;2.78;;;2.78;;
71176;SDS011;58877;51.992;4.504;2023-06-14T08:50:59;3.01;;;3.01;;
71176;SDS011;58877;51.992;4.504;2023-06-14T08:53:32;2.88;;;2.88;;
71176;SDS011;58877;51.992;4.504;2023-06-14T08:56:01;2.67;;;2.67;;
71176;SDS011;58877;51.992;4.504;2023-06-14T08:58:30;2.95;;;2.95;;
71176;SDS011;58877;51.992;4.504;2023-06-14T09:00:59;2.31;;;2.31;;
71176;SDS011;58877;51.992;4.504;2023-06-14T09:03:27;2.46;;;2.46;;
71176;SDS011;58877;51.992;4.504;2023-06-14T09:05:56;2.49;;;2.49;;
71176;SDS011;58877;51.992;4.504;2023-06-14T09:08:27;2.45;;;2.45;;
71176;SDS011;58877;51.992;4.504;2023-06-14T09:11:02;2.69;;;2.69;;
71176;SDS011;58877;51.992;4.504;2023-06-14T09:13:28;2.42;;;2.42;;
71176;SDS011;58877;51.992;4.504;2023-06-14T09:15:59;2.72;;;2.72;;
71176;SDS011;58877;51.992;4.504;2023-06-14T09:18:42;2.62;;;2.62;;
71176;SDS011;58877;51.992;4.504;2023-06-14T09:24:02;2.65;;;2.65;;
71176;SDS011;58877;51.992;4.504;2023-06-14T09:26:32;2.54;;;2.54;;
71176;SDS011;58877;51.992;4.504;2023-06-14T09:29:06;2.36;;;2.36;;
71176;SDS011;58877;51.992;4.504;2023-06-14T09:31:32;2.54;;;2.54;;
71176;SDS011;58877;51.992;4.504;2023-06-14T09:33:58;2.45;;;2.45;;
71176;SDS011;58877;51.992;4.504;2023-06-14T09:36:28;2.52;;;2.52;;
71176;SDS011;58877;51.992;4.504;2023-06-14T09:38:58;2.27;;;2.27;;
71176;SDS011;58877;51.992;4.504;2023-06-14T09:44:11;2.33;;;2.33;;
71176;SDS011;58877;51.992;4.504;2023-06-14T09:46:43;2.36;;;2.36;;
71176;SDS011;58877;51.992;4.504;2023-06-14T09:49:09;2.37;;;2.37;;
71176;SDS011;58877;51.992;4.504;2023-06-14T09:51:36;2.29;;;2.29;;
71176;SDS011;58877;51.992;4.504;2023-06-14T09:54:13;2.17;;;2.17;;
71176;SDS011;58877;51.992;4.504;2023-06-14T09:56:43;2.36;;;2.36;;
71176;SDS011;58877;51.992;4.504;2023-06-14T09:59:16;1.94;;;1.94;;
71176;SDS011;58877;51.992;4.504;2023-06-14T10:01:52;2.28;;;2.28;;
71176;SDS011;58877;51.992;4.504;2023-06-14T10:04:31;1.93;;;1.93;;
71176;SDS011;58877;51.992;4.504;2023-06-14T10:06:59;2.09;;;2.09;;
71176;SDS011;58877;51.992;4.504;2023-06-14T10:09:27;1.85;;;1.85;;
71176;SDS011;58877;51.992;4.504;2023-06-14T10:12:01;1.84;;;1.84;;
71176;SDS011;58877;51.992;4.504;2023-06-14T10:14:29;1.84;;;1.84;;
71176;SDS011;58877;51.992;4.504;2023-06-14T10:17:10;1.67;;;1.67;;
71176;SDS011;58877;51.992;4.504;2023-06-14T10:19:53;1.88;;;1.88;;
71176;SDS011;58877;51.992;4.504;2023-06-14T10:23:02;1.87;;;1.87;;
71176;SDS011;58877;51.992;4.504;2023-06-14T10:25:44;1.89;;;1.89;;
71176;SDS011;58877;51.992;4.504;2023-06-14T10:31:03;1.64;;;1.64;;
71176;SDS011;58877;51.992;4.504;2023-06-14T10:38:57;1.77;;;1.77;;
71176;SDS011;58877;51.992;4.504;2023-06-14T10:41:25;1.64;;;1.64;;
71176;SDS011;58877;51.992;4.504;2023-06-14T10:46:45;1.67;;;1.67;;
71176;SDS011;58877;51.992;4.504;2023-06-14T10:49:15;1.50;;;1.50;;
71176;SDS011;58877;51.992;4.504;2023-06-14T10:51:49;1.58;;;1.58;;
71176;SDS011;58877;51.992;4.504;2023-06-14T10:54:23;1.52;;;1.52;;
71176;SDS011;58877;51.992;4.504;2023-06-14T10:56:52;1.45;;;1.45;;
71176;SDS011;58877;51.992;4.504;2023-06-14T10:59:22;1.37;;;1.37;;
71176;SDS011;58877;51.992;4.504;2023-06-14T11:04:52;1.91;;;1.91;;
71176;SDS011;58877;51.992;4.504;2023-06-14T11:10:18;1.65;;;1.65;;
71176;SDS011;58877;51.992;4.504;2023-06-14T11:13:03;1.66;;;1.66;;
71176;SDS011;58877;51.992;4.504;2023-06-14T11:15:33;1.45;;;1.45;;
71176;SDS011;58877;51.992;4.504;2023-06-14T11:18:00;1.59;;;1.59;;
71176;SDS011;58877;51.992;4.504;2023-06-14T11:20:32;1.37;;;1.37;;
71176;SDS011;58877;51.992;4.504;2023-06-14T11:23:03;1.77;;;1.77;;
71176;SDS011;58877;51.992;4.504;2023-06-14T11:25:30;1.44;;;1.44;;
71176;SDS011;58877;51.992;4.504;2023-06-14T11:27:56;1.54;;;1.54;;
71176;SDS011;58877;51.992;4.504;2023-06-14T11:30:24;1.65;;;1.65;;
71176;SDS011;58877;51.992;4.504;2023-06-14T11:32:53;1.44;;;1.44;;
71176;SDS011;58877;51.992;4.504;2023-06-14T11:35:23;1.26;;;1.26;;
71176;SDS011;58877;51.992;4.504;2023-06-14T11:37:54;1.34;;;1.34;;
71176;SDS011;58877;51.992;4.504;2023-06-14T11:40:25;1.32;;;1.32;;
71176;SDS011;58877;51.992;4.504;2023-06-14T11:42:58;1.38;;;1.38;;
71176;SDS011;58877;51.992;4.504;2023-06-14T11:45:27;1.45;;;1.45;;
71176;SDS011;58877;51.992;4.504;2023-06-14T11:47:55;1.21;;;1.21;;
71176;SDS011;58877;51.992;4.504;2023-06-14T11:50:22;1.21;;;1.21;;
71176;SDS011;58877;51.992;4.504;2023-06-14T11:52:54;1.15;;;1.15;;
71176;SDS011;58877;51.992;4.504;2023-06-14T11:55:35;1.32;;;1.32;;
71176;SDS011;58877;51.992;4.504;2023-06-14T11:58:02;1.27;;;1.27;;
71176;SDS011;58877;51.992;4.504;2023-06-14T12:00:28;1.17;;;1.17;;
71176;SDS011;58877;51.992;4.504;2023-06-14T12:08:05;1.36;;;1.36;;
71176;SDS011;58877;51.992;4.504;2023-06-14T12:10:39;1.32;;;1.32;;
71176;SDS011;58877;51.992;4.504;2023-06-14T12:13:09;1.29;;;1.29;;
71176;SDS011;58877;51.992;4.504;2023-06-14T12:15:38;1.28;;;1.28;;
71176;SDS011;58877;51.992;4.504;2023-06-14T12:18:05;1.08;;;1.08;;
71176;SDS011;58877;51.992;4.504;2023-06-14T12:28:07;1.27;;;1.27;;
71176;SDS011;58877;51.992;4.504;2023-06-14T12:30:43;1.24;;;1.24;;
71176;SDS011;58877;51.992;4.504;2023-06-14T12:33:13;1.35;;;1.35;;
71176;SDS011;58877;51.992;4.504;2023-06-14T12:35:56;1.22;;;1.22;;
71176;SDS011;58877;51.992;4.504;2023-06-14T12:38:35;1.38;;;1.38;;
71176;SDS011;58877;51.992;4.504;2023-06-14T12:41:16;1.46;;;1.46;;
71176;SDS011;58877;51.992;4.504;2023-06-14T12:43:51;1.37;;;1.37;;
71176;SDS011;58877;51.992;4.504;2023-06-14T12:46:28;1.21;;;1.21;;
71176;SDS011;58877;51.992;4.504;2023-06-14T12:48:57;1.40;;;1.40;;
71176;SDS011;58877;51.992;4.504;2023-06-14T12:51:26;1.42;;;1.42;;
71176;SDS011;58877;51.992;4.504;2023-06-14T12:53:52;1.34;;;1.34;;
71176;SDS011;58877;51.992;4.504;2023-06-14T12:56:20;1.31;;;1.31;;
71176;SDS011;58877;51.992;4.504;2023-06-14T12:58:46;1.35;;;1.35;;
71176;SDS011;58877;51.992;4.504;2023-06-14T13:01:12;1.36;;;1.36;;
71176;SDS011;58877;51.992;4.504;2023-06-14T13:03:41;1.47;;;1.47;;
71176;SDS011;58877;51.992;4.504;2023-06-14T13:06:06;1.40;;;1.40;;
71176;SDS011;58877;51.992;4.504;2023-06-14T13:08:32;1.25;;;1.25;;
71176;SDS011;58877;51.992;4.504;2023-06-14T13:11:00;1.38;;;1.38;;
71176;SDS011;58877;51.992;4.504;2023-06-14T13:13:26;1.44;;;1.44;;
71176;SDS011;58877;51.992;4.504;2023-06-14T13:15:52;1.27;;;1.27;;
71176;SDS011;58877;51.992;4.504;2023-06-14T13:18:18;1.49;;;1.49;;
71176;SDS011;58877;51.992;4.504;2023-06-14T13:20:44;1.40;;;1.40;;
71176;SDS011;58877;51.992;4.504;2023-06-14T13:23:11;1.20;;;1.20;;
71176;SDS011;58877;51.992;4.504;2023-06-14T13:25:37;1.35;;;1.35;;
71176;SDS011;58877;51.992;4.504;2023-06-14T13:28:06;1.38;;;1.38;;
71176;SDS011;58877;51.992;4.504;2023-06-14T13:30:32;1.34;;;1.34;;
71176;SDS011;58877;51.992;4.504;2023-06-14T13:33:03;1.43;;;1.43;;
71176;SDS011;58877;51.992;4.504;2023-06-14T13:35:29;1.45;;;1.45;;
71176;SDS011;58877;51.992;4.504;2023-06-14T13:37:55;1.42;;;1.42;;
71176;SDS011;58877;51.992;4.504;2023-06-14T13:40:24;1.09;;;1.09;;
71176;SDS011;58877;51.992;4.504;2023-06-14T13:42:49;1.36;;;1.36;;
71176;SDS011;58877;51.992;4.504;2023-06-14T13:45:15;1.33;;;1.33;;
71176;SDS011;58877;51.992;4.504;2023-06-14T13:47:42;1.36;;;1.36;;
71176;SDS011;58877;51.992;4.504;2023-06-14T13:50:07;1.17;;;1.17;;
71176;SDS011;58877;51.992;4.504;2023-06-14T13:52:39;1.53;;;1.53;;
71176;SDS011;58877;51.992;4.504;2023-06-14T13:55:05;1.40;;;1.40;;
71176;SDS011;58877;51.992;4.504;2023-06-14T13:57:31;1.29;;;1.29;;
71176;SDS011;58877;51.992;4.504;2023-06-14T13:59:57;1.37;;;1.37;;
71176;SDS011;58877;51.992;4.504;2023-06-14T14:02:27;1.35;;;1.35;;
71176;SDS011;58877;51.992;4.504;2023-06-14T14:04:56;1.31;;;1.31;;
71176;SDS011;58877;51.992;4.504;2023-06-14T14:07:22;1.38;;;1.38;;
71176;SDS011;58877;51.992;4.504;2023-06-14T14:09:51;1.30;;;1.30;;
71176;SDS011;58877;51.992;4.504;2023-06-14T14:12:18;1.50;;;1.50;;
71176;SDS011;58877;51.992;4.504;2023-06-14T14:14:44;1.54;;;1.54;;
71176;SDS011;58877;51.992;4.504;2023-06-14T14:17:10;1.42;;;1.42;;
71176;SDS011;58877;51.992;4.504;2023-06-14T14:19:35;1.37;;;1.37;;
71176;SDS011;58877;51.992;4.504;2023-06-14T14:22:01;1.35;;;1.35;;
71176;SDS011;58877;51.992;4.504;2023-06-14T14:24:27;1.52;;;1.52;;
71176;SDS011;58877;51.992;4.504;2023-06-14T14:26:53;1.47;;;1.47;;
71176;SDS011;58877;51.992;4.504;2023-06-14T14:29:19;1.73;;;1.73;;
71176;SDS011;58877;51.992;4.504;2023-06-14T14:31:45;1.51;;;1.51;;
71176;SDS011;58877;51.992;4.504;2023-06-14T14:34:11;1.26;;;1.26;;
71176;SDS011;58877;51.992;4.504;2023-06-14T14:36:38;1.44;;;1.44;;
71176;SDS011;58877;51.992;4.504;2023-06-14T14:39:10;1.38;;;1.38;;
71176;SDS011;58877;51.992;4.504;2023-06-14T14:41:36;1.42;;;1.42;;
71176;SDS011;58877;51.992;4.504;2023-06-14T14:44:03;1.41;;;1.41;;
71176;SDS011;58877;51.992;4.504;2023-06-14T14:46:30;1.74;;;1.74;;
71176;SDS011;58877;51.992;4.504;2023-06-14T14:48:56;1.17;;;1.17;;
71176;SDS011;58877;51.992;4.504;2023-06-14T14:51:21;1.42;;;1.42;;
71176;SDS011;58877;51.992;4.504;2023-06-14T14:53:47;1.49;;;1.49;;
71176;SDS011;58877;51.992;4.504;2023-06-14T14:56:13;1.32;;;1.32;;
71176;SDS011;58877;51.992;4.504;2023-06-14T14:58:38;1.26;;;1.26;;
71176;SDS011;58877;51.992;4.504;2023-06-14T15:01:04;1.23;;;1.23;;
71176;SDS011;58877;51.992;4.504;2023-06-14T15:03:31;1.21;;;1.21;;
71176;SDS011;58877;51.992;4.504;2023-06-14T15:05:56;1.29;;;1.29;;
71176;SDS011;58877;51.992;4.504;2023-06-14T15:08:34;1.27;;;1.27;;
71176;SDS011;58877;51.992;4.504;2023-06-14T15:11:03;1.19;;;1.19;;
71176;SDS011;58877;51.992;4.504;2023-06-14T15:13:28;1.32;;;1.32;;
71176;SDS011;58877;51.992;4.504;2023-06-14T15:15:54;1.56;;;1.56;;
71176;SDS011;58877;51.992;4.504;2023-06-14T15:18:19;1.29;;;1.29;;
71176;SDS011;58877;51.992;4.504;2023-06-14T15:20:46;1.31;;;1.31;;
71176;SDS011;58877;51.992;4.504;2023-06-14T15:23:12;1.33;;;1.33;;
71176;SDS011;58877;51.992;4.504;2023-06-14T15:25:44;1.25;;;1.25;;
71176;SDS011;58877;51.992;4.504;2023-06-14T15:28:12;1.34;;;1.34;;
71176;SDS011;58877;51.992;4.504;2023-06-14T15:30:37;1.27;;;1.27;;
71176;SDS011;58877;51.992;4.504;2023-06-14T15:33:03;1.51;;;1.51;;
71176;SDS011;58877;51.992;4.504;2023-06-14T15:35:29;1.48;;;1.48;;